Time;durP1;ratioP1;P1;durP2;ratioP2;P2;SDS_P1;SDS_P2;PMS_P1;PMS_P2;Temp;Humidity;BMP_temperature;BMP_pressure;BME280_temperature;BME280_humidity;BME280_pressure;Samples;Min_cycle;Max_cycle;Signal;HPM_P1;HPM_P2
2023/10/31 00:01:13;;;;;;;;;;;;;;;9.05;100.00;99620.25;5013935;28;19925;-73
2023/10/31 00:03:40;;;;;;;;;;;;;;;9.06;100.00;99621.13;5012363;28;20167;-76
2023/10/31 00:06:05;;;;;;;;;;;;;;;8.96;100.00;99621.09;5012786;28;19921;-73
2023/10/31 00:08:30;;;;;;;;;;;;;;;8.99;100.00;99615.47;5008455;28;19926;-73
2023/10/31 00:10:56;;;;;;;;;;;;;;;8.97;100.00;99623.63;5015463;28;19921;-75
2023/10/31 00:22:29;;;;;;;;;;;;;;;8.80;100.00;99659.09;5014787;28;20613;-73
2023/10/31 00:24:55;;;;;;;;;;;;;;;8.84;100.00;99663.22;5013269;28;20418;-73
2023/10/31 00:27:20;;;;;;;;;;;;;;;8.82;100.00;99659.81;4998465;28;20057;-74
2023/10/31 00:29:45;;;;;;;;;;;;;;;8.80;100.00;99659.09;5010542;28;19925;-74
2023/10/31 00:32:10;;;;;;;;;;;;;;;8.83;100.00;99658.84;5009151;28;19962;-74
2023/10/31 00:34:36;;;;;;;;;;;;;;;8.86;100.00;99663.91;4993565;28;19929;-73
2023/10/31 00:37:01;;;;;;;;;;;;;;;8.85;100.00;99676.44;5014451;28;19987;-74
2023/10/31 00:39:26;;;;;;;;;;;;;;;8.91;100.00;99672.38;4998158;28;19925;-73
2023/10/31 00:41:51;;;;;;;;;;;;;;;8.90;100.00;99680.53;5019752;28;20229;-75
2023/10/31 00:44:16;;;;;;;;;;;;;;;8.93;100.00;99685.63;5011199;28;19921;-75
2023/10/31 00:46:42;;;;;;;;;;;;;;;8.89;100.00;99686.88;5014237;28;19925;-73
2023/10/31 00:49:07;;;;;;;;;;;;;;;8.91;100.00;99684.91;5011035;28;20233;-73
2023/10/31 00:51:32;;;;;;;;;;;;;;;8.92;100.00;99694.63;5000002;28;19924;-75
2023/10/31 00:53:57;;;;;;;;;;;;;;;8.94;100.00;99701.53;5010752;28;19921;-73
2023/10/31 00:56:22;;;;;;;;;;;;;;;8.96;100.00;99706.78;5015088;28;19940;-73
2023/10/31 00:58:48;;;;;;;;;;;;;;;8.93;100.00;99709.72;5015600;28;20323;-73
2023/10/31 01:01:13;;;;;;;;;;;;;;;8.94;100.00;99700.69;4998326;28;20660;-73
2023/10/31 01:03:39;;;;;;;;;;;;;;;8.92;100.00;99710.69;4992662;28;19928;-74
2023/10/31 01:06:05;;;;;;;;;;;;;;;8.96;100.00;99715.63;5015630;28;20654;-75
2023/10/31 01:08:30;;;;;;;;;;;;;;;8.94;100.00;99712.25;5011706;28;19921;-73
2023/10/31 01:10:55;;;;;;;;;;;;;;;8.98;100.00;99719.03;5017417;28;19921;-73
2023/10/31 01:13:20;;;;;;;;;;;;;;;8.99;100.00;99720.72;5013663;28;19925;-75
2023/10/31 01:15:45;;;;;;;;;;;;;;;9.07;100.00;99724.56;5001301;28;20031;-76
2023/10/31 01:18:11;;;;;;;;;;;;;;;9.10;100.00;99730.47;5009033;28;19924;-74
2023/10/31 01:20:36;;;;;;;;;;;;;;;9.14;100.00;99726.53;5014916;28;19928;-73
2023/10/31 01:23:01;;;;;;;;;;;;;;;9.15;100.00;99730.91;4997343;28;20381;-74
2023/10/31 01:25:27;;;;;;;;;;;;;;;9.17;100.00;99735.28;5017234;28;20299;-73
2023/10/31 01:27:52;;;;;;;;;;;;;;;9.21;100.00;99745.56;5008083;28;20470;-75
2023/10/31 01:30:17;;;;;;;;;;;;;;;9.24;100.00;99736.44;5014567;28;19923;-72
2023/10/31 01:32:42;;;;;;;;;;;;;;;9.29;100.00;99736.84;5000103;28;19956;-72
2023/10/31 01:35:08;;;;;;;;;;;;;;;9.30;100.00;99746.56;5012036;28;19925;-76
2023/10/31 01:37:33;;;;;;;;;;;;;;;9.20;100.00;99749.22;5007517;28;19961;-72
2023/10/31 01:39:58;;;;;;;;;;;;;;;9.17;100.00;99752.19;4992893;28;19921;-72
2023/10/31 01:42:23;;;;;;;;;;;;;;;9.21;100.00;99753.59;5011299;28;19927;-73
2023/10/31 01:44:49;;;;;;;;;;;;;;;9.20;100.00;99754.59;5011120;28;20279;-73
2023/10/31 01:47:14;;;;;;;;;;;;;;;9.21;100.00;99752.78;5007745;28;19983;-74
2023/10/31 01:49:39;;;;;;;;;;;;;;;9.15;100.00;99746.13;5013980;28;19921;-73
2023/10/31 01:52:05;;;;;;;;;;;;;;;9.14;100.00;99742.59;5014337;28;19959;-73
2023/10/31 01:54:30;;;;;;;;;;;;;;;9.14;100.00;99756.00;4995506;28;19924;-72
2023/10/31 01:56:57;;;;;;;;;;;;;;;9.14;100.00;99761.34;5010308;28;19966;-72
2023/10/31 01:59:23;;;;;;;;;;;;;;;9.17;100.00;99760.22;4996216;28;19925;-72
2023/10/31 02:01:48;;;;;;;;;;;;;;;9.09;100.00;99773.47;5010368;28;19925;-74
2023/10/31 02:04:13;;;;;;;;;;;;;;;9.07;100.00;99762.88;5008890;28;20364;-72
2023/10/31 02:06:39;;;;;;;;;;;;;;;9.06;100.00;99771.06;5008237;28;20352;-73
2023/10/31 02:09:04;;;;;;;;;;;;;;;9.12;100.00;99768.66;5009504;28;19917;-73
2023/10/31 02:11:29;;;;;;;;;;;;;;;9.11;100.00;99766.13;5009621;28;19921;-72
2023/10/31 02:13:55;;;;;;;;;;;;;;;9.14;100.00;99761.34;5012535;28;19921;-73
2023/10/31 02:16:20;;;;;;;;;;;;;;;9.13;100.00;99756.16;5012075;28;20010;-72
2023/10/31 02:18:45;;;;;;;;;;;;;;;9.14;100.00;99757.81;5006916;28;20042;-73
2023/10/31 02:21:10;;;;;;;;;;;;;;;9.17;100.00;99746.81;4998286;28;20051;-72
2023/10/31 02:23:36;;;;;;;;;;;;;;;9.15;100.00;99746.97;5012706;28;20051;-72
2023/10/31 02:26:01;;;;;;;;;;;;;;;9.15;100.00;99741.63;5012171;28;19921;-73
2023/10/31 02:28:27;;;;;;;;;;;;;;;9.15;100.00;99735.41;5012057;28;19921;-73
2023/10/31 02:30:53;;;;;;;;;;;;;;;9.11;100.00;99742.03;5011113;28;19972;-74
2023/10/31 02:33:18;;;;;;;;;;;;;;;9.03;100.00;99729.31;5017522;28;20039;-73
2023/10/31 02:35:43;;;;;;;;;;;;;;;9.10;100.00;99743.03;5010551;28;19921;-75
2023/10/31 02:38:08;;;;;;;;;;;;;;;9.11;100.00;99742.03;5006725;28;19925;-72
2023/10/31 02:40:34;;;;;;;;;;;;;;;9.09;100.00;99746.69;5011155;28;19971;-74
2023/10/31 02:42:59;;;;;;;;;;;;;;;9.13;100.00;99748.94;5000400;28;20260;-73
2023/10/31 02:45:24;;;;;;;;;;;;;;;9.01;100.00;99717.88;5012785;28;19971;-73
2023/10/31 02:47:49;;;;;;;;;;;;;;;9.15;100.00;99749.66;5010425;28;20006;-73
2023/10/31 02:50:15;;;;;;;;;;;;;;;9.18;100.00;99753.88;5003910;28;19917;-74
2023/10/31 02:52:40;;;;;;;;;;;;;;;9.22;100.00;99765.19;5014617;28;19929;-73
2023/10/31 02:55:05;;;;;;;;;;;;;;;9.22;100.00;99759.81;4998870;28;20617;-73
2023/10/31 02:57:31;;;;;;;;;;;;;;;9.25;100.00;99764.91;5011772;28;19932;-73
2023/10/31 02:59:56;;;;;;;;;;;;;;;9.25;100.00;99772.94;5012182;28;19925;-74
2023/10/31 03:02:22;;;;;;;;;;;;;;;9.28;100.00;99767.28;5012869;28;20900;-73
2023/10/31 03:04:47;;;;;;;;;;;;;;;9.34;100.00;99769.41;4998522;28;20326;-73
2023/10/31 03:07:12;;;;;;;;;;;;;;;9.38;100.00;99770.84;5012630;28;19925;-73
2023/10/31 03:09:38;;;;;;;;;;;;;;;9.37;100.00;99774.50;5009716;28;19921;-76
2023/10/31 03:12:03;;;;;;;;;;;;;;;9.39;100.00;99779.75;5000977;28;19925;-77
2023/10/31 03:14:28;;;;;;;;;;;;;;;9.41;100.00;99777.75;5000484;28;20330;-73
2023/10/31 03:16:53;;;;;;;;;;;;;;;9.46;100.00;99778.19;4999847;28;19928;-72
2023/10/31 03:19:18;;;;;;;;;;;;;;;9.46;100.00;99778.19;5011837;28;19963;-73
2023/10/31 03:21:44;;;;;;;;;;;;;;;9.51;100.00;99778.63;4997843;28;19953;-73
2023/10/31 03:24:09;;;;;;;;;;;;;;;9.43;100.00;99784.69;5012186;28;20102;-76
2023/10/31 03:26:34;;;;;;;;;;;;;;;9.50;100.00;99790.31;5011645;28;20008;-75
2023/10/31 03:28:59;;;;;;;;;;;;;;;9.51;100.00;99788.50;5000029;28;19933;-74
2023/10/31 03:31:25;;;;;;;;;;;;;;;9.51;100.00;99785.81;5011094;28;19921;-75
2023/10/31 03:33:51;;;;;;;;;;;;;;;9.43;100.00;99789.16;5012212;28;19932;-75
2023/10/31 03:36:16;;;;;;;;;;;;;;;9.45;100.00;99801.47;5016008;28;20435;-77
2023/10/31 03:38:41;;;;;;;;;;;;;;;9.48;100.00;99804.84;4997209;28;19967;-73
2023/10/31 03:41:07;;;;;;;;;;;;;;;9.49;100.00;99802.03;4996131;28;19967;-75
2023/10/31 03:43:32;;;;;;;;;;;;;;;9.50;100.00;99806.41;5015431;28;19928;-73
2023/10/31 03:45:57;;;;;;;;;;;;;;;9.46;100.00;99813.00;5007999;28;19929;-75
2023/10/31 03:48:23;;;;;;;;;;;;;;;9.47;100.00;99816.56;5019175;28;20252;-73
2023/10/31 03:50:49;;;;;;;;;;;;;;;9.49;100.00;99822.63;5014744;28;19991;-73
2023/10/31 03:53:14;;;;;;;;;;;;;;;9.43;100.00;99818.66;5010639;28;20324;-75
2023/10/31 03:55:40;;;;;;;;;;;;;;;9.44;100.00;99821.19;4996375;28;19923;-73
2023/10/31 03:58:05;;;;;;;;;;;;;;;9.45;100.00;99830.94;5020650;28;19958;-74
2023/10/31 04:00:31;;;;;;;;;;;;;;;9.45;100.00;99830.06;5012057;28;19979;-72
2023/10/31 04:02:56;;;;;;;;;;;;;;;9.43;100.00;99834.72;5011686;28;20011;-73
2023/10/31 04:05:22;;;;;;;;;;;;;;;9.42;100.00;99836.56;5009454;28;20371;-73
2023/10/31 04:07:47;;;;;;;;;;;;;;;9.48;100.00;99839.69;5007299;28;19928;-73
2023/10/31 04:10:13;;;;;;;;;;;;;;;9.49;100.00;99839.53;5016606;28;19924;-72
2023/10/31 04:12:38;;;;;;;;;;;;;;;9.53;100.00;99851.69;4994957;28;19972;-72
2023/10/31 04:15:03;;;;;;;;;;;;;;;9.57;100.00;99852.25;5012337;28;19987;-72
2023/10/31 04:17:29;;;;;;;;;;;;;;;9.56;100.00;99851.41;5012648;28;20039;-72
2023/10/31 04:19:54;;;;;;;;;;;;;;;9.53;100.00;99858.88;5014897;28;19925;-74
2023/10/31 04:22:19;;;;;;;;;;;;;;;9.52;100.00;99854.50;5013047;28;19925;-76
2023/10/31 04:24:44;;;;;;;;;;;;;;;9.56;100.00;99862.13;5010842;28;20015;-73
2023/10/31 04:27:10;;;;;;;;;;;;;;;9.57;100.00;99863.81;5010978;28;20144;-73
2023/10/31 04:29:35;;;;;;;;;;;;;;;9.53;100.00;99858.88;5012455;28;19924;-73
2023/10/31 04:32:00;;;;;;;;;;;;;;;9.55;100.00;99865.78;5011784;28;19925;-76
2023/10/31 04:34:25;;;;;;;;;;;;;;;9.52;100.00;99866.06;4994934;28;19943;-74
2023/10/31 04:36:50;;;;;;;;;;;;;;;9.51;100.00;99867.03;5015768;28;20366;-73
2023/10/31 04:39:16;;;;;;;;;;;;;;;9.49;100.00;99870.84;5007749;28;20469;-73
2023/10/31 04:41:41;;;;;;;;;;;;;;;9.52;100.00;99874.09;5013059;28;20883;-74
2023/10/31 04:44:06;;;;;;;;;;;;;;;9.53;100.00;99874.97;5011971;28;19921;-73
2023/10/31 04:46:31;;;;;;;;;;;;;;;9.49;100.00;99879.72;5012693;28;19925;-74
2023/10/31 04:48:57;;;;;;;;;;;;;;;9.49;100.00;99885.09;5007550;28;19944;-73
2023/10/31 04:51:22;;;;;;;;;;;;;;;9.26;100.00;99855.00;5015379;28;19928;-74
2023/10/31 04:53:47;;;;;;;;;;;;;;;9.55;100.00;99897.94;5007670;28;20086;-73
2023/10/31 04:56:15;;;;;;;;;;;;;;;9.56;100.00;99902.31;5016244;28;20384;-74
2023/10/31 04:58:41;;;;;;;;;;;;;;;9.55;100.00;99902.44;5010883;28;19928;-76
2023/10/31 05:01:10;;;;;;;;;;;;;;;9.53;100.00;99902.59;4995687;28;20279;-74
2023/10/31 05:03:36;;;;;;;;;;;;;;;9.58;100.00;99908.41;5008957;28;19967;-73
2023/10/31 05:06:01;;;;;;;;;;;;;;;9.61;100.00;99907.28;5012732;28;19960;-74
2023/10/31 05:08:26;;;;;;;;;;;;;;;9.59;100.00;99918.13;5013599;28;20016;-73
2023/10/31 05:10:51;;;;;;;;;;;;;;;9.59;100.00;99918.13;5014005;28;19924;-73
2023/10/31 05:13:16;;;;;;;;;;;;;;;9.61;100.00;99918.00;4992390;28;19927;-74
2023/10/31 05:15:42;;;;;;;;;;;;;;;9.57;100.00;99920.09;5008328;28;19921;-74
2023/10/31 05:18:07;;;;;;;;;;;;;;;9.63;100.00;99916.03;4993732;28;19922;-73
2023/10/31 05:20:32;;;;;;;;;;;;;;;9.63;100.00;99913.34;5001494;28;20387;-74
2023/10/31 05:22:57;;;;;;;;;;;;;;;9.59;100.00;99911.91;4992674;28;19985;-75
2023/10/31 05:25:23;;;;;;;;;;;;;;;9.58;100.00;99921.81;5013196;28;19931;-73
2023/10/31 05:27:48;;;;;;;;;;;;;;;9.58;100.00;99912.91;5008332;28;19932;-73
2023/10/31 05:30:14;;;;;;;;;;;;;;;9.56;100.00;99915.72;5013932;28;20280;-73
2023/10/31 05:32:39;;;;;;;;;;;;;;;9.61;100.00;99915.31;5012678;28;19926;-74
2023/10/31 05:35:04;;;;;;;;;;;;;;;9.60;100.00;99918.97;5012099;28;19921;-75
2023/10/31 05:37:30;;;;;;;;;;;;;;;9.54;100.00;99922.19;5012632;28;20540;-73
2023/10/31 05:39:55;;;;;;;;;;;;;;;9.56;100.00;99923.75;5006591;28;19975;-73
2023/10/31 05:42:21;;;;;;;;;;;;;;;9.55;100.00;99916.72;5008529;28;19936;-73
2023/10/31 05:44:46;;;;;;;;;;;;;;;9.38;100.00;99907.47;5014395;28;20383;-73
2023/10/31 05:47:11;;;;;;;;;;;;;;;9.45;100.00;99929.22;5013851;28;20168;-75
2023/10/31 05:49:36;;;;;;;;;;;;;;;9.47;100.00;99927.25;5019856;28;19921;-73
2023/10/31 05:52:01;;;;;;;;;;;;;;;9.46;100.00;99933.59;4996363;28;19964;-73
2023/10/31 05:54:27;;;;;;;;;;;;;;;9.41;100.00;99934.00;5012223;28;20019;-73
2023/10/31 05:56:52;;;;;;;;;;;;;;;9.40;100.00;99948.38;5012095;28;20391;-73
2023/10/31 05:59:17;;;;;;;;;;;;;;;9.42;100.00;99949.09;5013873;28;19933;-73
2023/10/31 06:01:43;;;;;;;;;;;;;;;9.40;100.00;99950.22;5016672;28;19965;-73
2023/10/31 06:04:08;;;;;;;;;;;;;;;9.41;100.00;99960.78;5015906;28;20015;-73
2023/10/31 06:06:36;;;;;;;;;;;;;;;9.41;100.00;99959.94;5019372;28;19922;-73
2023/10/31 06:09:01;;;;;;;;;;;;;;;9.43;100.00;99968.69;5003408;28;19932;-73
2023/10/31 06:11:27;;;;;;;;;;;;;;;9.44;100.00;99976.59;4999608;28;19921;-75
2023/10/31 06:13:52;;;;;;;;;;;;;;;9.43;100.00;99974.91;5016770;28;19924;-73
2023/10/31 06:16:17;;;;;;;;;;;;;;;9.41;100.00;99976.00;5014155;28;19964;-73
2023/10/31 06:18:42;;;;;;;;;;;;;;;9.38;100.00;99981.66;5015239;28;20020;-74
2023/10/31 06:21:08;;;;;;;;;;;;;;;9.40;100.00;99982.38;5016009;28;20027;-73
2023/10/31 06:23:34;;;;;;;;;;;;;;;9.40;100.00;99990.41;5019728;28;19925;-73
2023/10/31 06:26:00;;;;;;;;;;;;;;;9.40;100.00;99991.25;5017048;28;20736;-73
2023/10/31 06:28:25;;;;;;;;;;;;;;;9.39;100.00;99996.75;5017264;28;19948;-74
2023/10/31 06:30:50;;;;;;;;;;;;;;;9.38;100.00;100001.25;5021467;28;19956;-74
2023/10/31 06:33:16;;;;;;;;;;;;;;;9.40;100.00;100012.69;5013475;28;20012;-73
2023/10/31 06:35:41;;;;;;;;;;;;;;;9.35;100.00;100014.91;5023285;28;19928;-73
2023/10/31 06:38:06;;;;;;;;;;;;;;;9.37;100.00;100017.47;5012582;28;19941;-73
2023/10/31 06:40:31;;;;;;;;;;;;;;;9.41;100.00;100019.72;5014426;28;19982;-74
2023/10/31 06:42:57;;;;;;;;;;;;;;;9.42;100.00;100020.56;5013892;28;19976;-74
2023/10/31 06:45:22;;;;;;;;;;;;;;;9.50;100.00;100025.28;5013819;28;19975;-73
2023/10/31 06:47:47;;;;;;;;;;;;;;;9.55;100.00;100037.31;5000900;28;20059;-73
2023/10/31 06:50:12;;;;;;;;;;;;;;;9.49;100.00;100032.47;5014242;28;19971;-74
2023/10/31 06:52:37;;;;;;;;;;;;;;;9.45;100.00;100029.22;5014551;28;19995;-74
2023/10/31 06:55:03;;;;;;;;;;;;;;;9.52;100.00;100034.06;5013014;28;19987;-74
2023/10/31 06:57:28;;;;;;;;;;;;;;;9.19;100.00;99991.25;4998982;28;19927;-74
2023/10/31 06:59:53;;;;;;;;;;;;;;;9.51;100.00;100033.19;5015458;28;19960;-73
2023/10/31 07:02:19;;;;;;;;;;;;;;;9.49;100.00;100029.78;5010223;28;19949;-73
2023/10/31 07:04:44;;;;;;;;;;;;;;;9.47;100.00;100029.06;5014433;28;19925;-73
2023/10/31 07:07:09;;;;;;;;;;;;;;;9.38;100.00;100032.56;5009604;28;20310;-73
2023/10/31 07:09:34;;;;;;;;;;;;;;;9.21;100.00;100016.09;5011740;28;19931;-74
2023/10/31 07:12:00;;;;;;;;;;;;;;;9.37;100.00;100033.53;5008106;28;19927;-72
2023/10/31 07:14:25;;;;;;;;;;;;;;;9.35;100.00;100030.97;5011793;28;19917;-72
2023/10/31 07:16:50;;;;;;;;;;;;;;;9.34;100.00;100025.75;5004267;28;20467;-72
2023/10/31 07:19:15;;;;;;;;;;;;;;;9.35;100.00;100030.13;5011927;28;20121;-72
2023/10/31 07:21:40;;;;;;;;;;;;;;;9.44;100.00;100024.84;5013779;28;19925;-73
2023/10/31 07:24:08;;;;;;;;;;;;;;;9.21;100.00;99996.50;5008150;28;19921;-72
2023/10/31 07:26:33;;;;;;;;;;;;;;;9.48;100.00;100028.09;5013379;28;20765;-72
2023/10/31 07:28:59;;;;;;;;;;;;;;;9.47;100.00;100036.28;5013770;28;19921;-72
2023/10/31 07:31:24;;;;;;;;;;;;;;;9.45;100.00;100033.72;5009340;28;19922;-72
2023/10/31 07:33:49;;;;;;;;;;;;;;;9.39;100.00;100037.78;5016770;28;19953;-72
2023/10/31 07:36:14;;;;;;;;;;;;;;;9.39;100.00;100042.28;5009641;28;20030;-73
2023/10/31 07:38:39;;;;;;;;;;;;;;;9.44;100.00;100042.72;4998115;28;19960;-72
2023/10/31 07:41:05;;;;;;;;;;;;;;;9.42;100.00;100047.38;4997742;28;19987;-72
2023/10/31 07:43:30;;;;;;;;;;;;;;;9.34;100.00;100049.88;5008822;28;19921;-72
2023/10/31 07:45:55;;;;;;;;;;;;;;;9.33;100.00;100057.03;5008984;28;19971;-73
2023/10/31 07:48:20;;;;;;;;;;;;;;;9.40;100.00;100052.88;5010881;28;19948;-72
2023/10/31 07:50:46;;;;;;;;;;;;;;;9.40;100.00;100042.16;5008110;28;19994;-72
2023/10/31 07:53:11;;;;;;;;;;;;;;;9.45;100.00;100050.66;5006963;28;19921;-72
2023/10/31 07:55:36;;;;;;;;;;;;;;;9.51;100.00;100051.94;5006743;28;19917;-74
2023/10/31 07:58:01;;;;;;;;;;;;;;;9.61;100.00;100054.66;5005416;28;19929;-72
2023/10/31 08:00:26;;;;;;;;;;;;;;;9.60;100.00;100056.53;5005807;28;19924;-72
2023/10/31 08:02:52;;;;;;;;;;;;;;;9.65;100.00;100064.16;5003736;28;20259;-72
2023/10/31 08:05:17;;;;;;;;;;;;;;;9.68;100.00;100058.53;5009638;28;19971;-72
2023/10/31 08:07:42;;;;;;;;;;;;;;;9.73;100.00;100061.66;5008654;28;20433;-72
2023/10/31 08:10:07;;;;;;;;;;;;;;;9.77;100.00;100062.25;5007236;28;20305;-73
2023/10/31 08:12:33;;;;;;;;;;;;;;;9.88;100.00;100070.22;5008271;28;19928;-72
2023/10/31 08:14:58;;;;;;;;;;;;;;;9.88;100.00;100067.53;5009989;28;20239;-72
2023/10/31 08:17:24;;;;;;;;;;;;;;;9.93;100.00;100069.78;5011027;28;19928;-72
2023/10/31 08:19:49;;;;;;;;;;;;;;;9.98;100.00;100066.69;5014578;28;19932;-72
2023/10/31 08:22:14;;;;;;;;;;;;;;;10.08;100.00;100064.06;5012680;28;19917;-72
2023/10/31 08:24:39;;;;;;;;;;;;;;;10.19;100.00;100074.69;5014571;28;19983;-72
2023/10/31 08:27:05;;;;;;;;;;;;;;;10.30;100.00;100071.91;5012122;28;20654;-72
2023/10/31 08:29:30;;;;;;;;;;;;;;;10.34;100.00;100076.00;5010156;28;19960;-72
2023/10/31 08:31:56;;;;;;;;;;;;;;;10.53;100.00;100079.78;4999569;28;20283;-72
2023/10/31 08:34:21;;;;;;;;;;;;;;;10.67;100.00;100075.84;5009232;28;20306;-72
2023/10/31 08:36:46;;;;;;;;;;;;;;;10.79;100.00;100082.75;5014391;28;19940;-72
2023/10/31 08:39:11;;;;;;;;;;;;;;;10.78;100.00;100078.38;5013504;28;19925;-72
2023/10/31 08:41:38;;;;;;;;;;;;;;;10.75;100.00;100083.19;5012228;28;19925;-72
2023/10/31 08:44:04;;;;;;;;;;;;;;;10.81;100.00;100074.59;5011370;28;19929;-72
2023/10/31 08:46:29;;;;;;;;;;;;;;;10.83;100.00;100082.50;5012763;28;19924;-72
2023/10/31 08:48:54;;;;;;;;;;;;;;;10.89;100.00;100079.25;5011562;28;20737;-75
2023/10/31 08:51:20;;;;;;;;;;;;;;;10.99;100.00;100090.84;5014945;28;19925;-73
2023/10/31 08:53:45;;;;;;;;;;;;;;;11.12;100.00;100089.72;5009652;28;19921;-72
2023/10/31 08:56:10;;;;;;;;;;;;;;;11.12;100.00;100095.09;5007400;28;19929;-75
2023/10/31 08:58:35;;;;;;;;;;;;;;;11.29;100.00;100093.53;5010024;28;19964;-77
2023/10/31 09:01:00;;;;;;;;;;;;;;;11.29;100.00;100098.91;5004507;28;19940;-74
2023/10/31 09:03:26;;;;;;;;;;;;;;;11.32;100.00;100102.16;5013285;28;20016;-72
2023/10/31 09:05:51;;;;;;;;;;;;;;;11.41;100.00;100097.75;5013299;28;20418;-73
2023/10/31 09:08:16;;;;;;;;;;;;;;;11.29;100.00;100102.44;5008459;28;19921;-71
2023/10/31 09:10:42;;;;;;;;;;;;;;;11.18;100.00;100100.75;5010832;28;19921;-73
2023/10/31 09:13:08;;;;;;;;;;;;;;;11.08;100.00;100105.28;5012625;28;19917;-72
2023/10/31 09:15:33;;;;;;;;;;;;;;;11.34;100.00;100107.41;5009698;28;19928;-73
2023/10/31 09:17:58;;;;;;;;;;;;;;;11.59;100.00;100111.31;5014629;28;21188;-72
2023/10/31 09:20:23;;;;;;;;;;;;;;;11.72;100.00;100113.69;4997443;28;19925;-73
2023/10/31 09:22:49;;;;;;;;;;;;;;;11.57;100.00;100113.28;5008238;28;20264;-72
2023/10/31 09:25:14;;;;;;;;;;;;;;;11.43;100.00;100114.59;5007847;28;19922;-72
2023/10/31 09:27:40;;;;;;;;;;;;;;;11.44;100.00;100120.81;5011157;28;19921;-73
2023/10/31 09:30:05;;;;;;;;;;;;;;;11.39;100.00;100129.28;5015284;28;19921;-72
2023/10/31 09:32:31;;;;;;;;;;;;;;;11.27;100.00;100130.44;5013165;28;19959;-72
2023/10/31 09:34:56;;;;;;;;;;;;;;;11.18;100.00;100134.84;5013414;28;19917;-72
2023/10/31 09:37:21;;;;;;;;;;;;;;;11.60;100.00;100142.59;5012634;28;19921;-72
2023/10/31 09:39:46;;;;;;;;;;;;;;;11.63;100.00;100136.09;5009666;28;20400;-72
2023/10/31 09:42:12;;;;;;;;;;;;;;;11.87;100.00;100138.28;5009852;28;20416;-72
2023/10/31 09:44:37;;;;;;;;;;;;;;;11.85;100.00;100142.97;5012382;28;19925;-72
2023/10/31 09:47:02;;;;;;;;;;;;;;;11.90;100.00;100147.94;5013188;28;19921;-71
2023/10/31 09:49:28;;;;;;;;;;;;;;;12.33;100.00;100145.69;5015834;28;19939;-71
2023/10/31 09:51:53;;;;;;;;;;;;;;;12.29;100.00;100147.81;5014877;28;19921;-71
2023/10/31 09:54:18;;;;;;;;;;;;;;;12.17;100.00;100149.03;5008583;28;19920;-71
2023/10/31 09:56:44;;;;;;;;;;;;;;;12.14;100.00;100158.22;5012797;28;19925;-71
2023/10/31 09:59:09;;;;;;;;;;;;;;;12.00;100.00;100152.31;5011420;28;19929;-72
2023/10/31 10:01:34;;;;;;;;;;;;;;;12.15;100.00;100165.28;5009722;28;19932;-72
2023/10/31 10:03:59;;;;;;;;;;;;;;;12.12;100.00;100157.50;5012828;28;19921;-73
2023/10/31 10:06:25;;;;;;;;;;;;;;;12.59;100.00;100170.91;5010071;28;20332;-73
2023/10/31 10:08:50;;;;;;;;;;;;;;;13.04;100.00;100169.25;5008768;28;19925;-72
2023/10/31 10:11:15;;;;;;;;;;;;;;;12.67;100.00;100172.88;5014502;28;20020;-72
2023/10/31 10:13:40;;;;;;;;;;;;;;;12.79;100.00;100178.91;4992223;28;20245;-72
2023/10/31 10:16:06;;;;;;;;;;;;;;;12.47;100.00;100177.50;5015892;28;20386;-72
2023/10/31 10:18:32;;;;;;;;;;;;;;;12.14;100.00;100190.50;5008331;28;19944;-72
2023/10/31 10:21:01;;;;;;;;;;;;;;;11.89;100.00;100187.41;5008517;28;19920;-72
2023/10/31 10:23:26;;;;;;;;;;;;;;;12.10;100.00;100198.03;5008256;28;19925;-72
2023/10/31 10:25:52;;;;;;;;;;;;;;;12.12;100.00;100198.75;5014352;28;20288;-72
2023/10/31 10:28:19;;;;;;;;;;;;;;;12.06;100.00;100202.00;5005775;28;20245;-72
2023/10/31 10:30:45;;;;;;;;;;;;;;;11.83;100.00;100205.00;5012389;28;20206;-72
2023/10/31 10:33:10;;;;;;;;;;;;;;;11.67;100.00;100210.94;5008024;28;20132;-71
2023/10/31 10:35:35;;;;;;;;;;;;;;;11.66;100.00;100213.75;5010325;28;19922;-71
2023/10/31 10:38:00;;;;;;;;;;;;;;;11.61;100.00;100218.72;5007659;28;19956;-73
2023/10/31 10:40:25;;;;;;;;;;;;;;;11.65;100.00;100217.47;5009713;28;20376;-71
2023/10/31 10:42:56;;;;;;;;;;;;;;;11.68;100.00;100228.78;5009078;28;20410;-72
2023/10/31 10:45:22;;;;;;;;;;;;;;;11.38;100.00;100221.69;5014805;28;20132;-73
2023/10/31 10:47:47;;;;;;;;;;;;;;;11.67;100.00;100224.38;5010117;28;20291;-71
2023/10/31 10:50:13;;;;;;;;;;;;;;;12.05;100.00;100226.38;5008439;28;19956;-72
2023/10/31 10:52:43;;;;;;;;;;;;;;;12.15;100.00;100222.69;5012833;28;19922;-72
2023/10/31 10:55:11;;;;;;;;;;;;;;;12.20;100.00;100232.13;5013581;28;20003;-72
2023/10/31 10:57:38;;;;;;;;;;;;;;;12.26;100.00;100236.94;5008960;28;19929;-72
2023/10/31 11:00:04;;;;;;;;;;;;;;;11.88;100.00;100228.75;5012567;28;19925;-72
2023/10/31 11:02:29;;;;;;;;;;;;;;;11.59;100.00;100245.75;5008849;28;20253;-71
2023/10/31 11:04:55;;;;;;;;;;;;;;;11.63;100.00;100243.66;5015673;28;19970;-72
2023/10/31 11:07:22;;;;;;;;;;;;;;;11.72;100.00;100242.78;5014577;28;19925;-72
2023/10/31 11:09:47;;;;;;;;;;;;;;;11.62;100.00;100239.25;5015643;28;19956;-73
2023/10/31 11:12:13;;;;;;;;;;;;;;;11.61;100.00;100235.69;5011894;28;20036;-74
2023/10/31 11:14:38;;;;;;;;;;;;;;;11.68;100.00;100239.53;5011038;28;20007;-72
2023/10/31 11:17:06;;;;;;;;;;;;;;;11.67;100.00;100240.53;5014175;28;20356;-72
2023/10/31 11:19:31;;;;;;;;;;;;;;;11.47;100.00;100242.34;5017974;28;20287;-72
2023/10/31 11:22:06;;;;;;;;;;;;;;;11.49;100.00;100236.84;5008258;28;20468;-75
2023/10/31 11:24:32;;;;;;;;;;;;;;;11.93;100.00;100239.06;5011356;28;19921;-72
2023/10/31 11:26:58;;;;;;;;;;;;;;;12.75;100.00;100248.38;5011635;28;19921;-72
2023/10/31 11:29:23;;;;;;;;;;;;;;;12.82;100.00;100245.09;5015546;28;20736;-72
2023/10/31 11:31:48;;;;;;;;;;;;;;;13.10;100.00;100247.81;5014100;28;19924;-71
2023/10/31 11:34:16;;;;;;;;;;;;;;;13.61;100.00;100249.06;5013965;28;19948;-73
2023/10/31 11:36:41;;;;;;;;;;;;;;;13.38;100.00;100262.09;5016083;28;19932;-72
2023/10/31 11:39:13;;;;;;;;;;;;;;;13.12;100.00;100253.91;5009565;28;19925;-72
2023/10/31 11:41:39;;;;;;;;;;;;;;;13.08;100.00;100258.75;5012267;28;19932;-72
2023/10/31 11:44:04;;;;;;;;;;;;;;;12.77;100.00;100256.34;5014613;28;20237;-72
2023/10/31 11:46:29;;;;;;;;;;;;;;;12.62;100.00;100260.50;5015122;28;20530;-72
2023/10/31 11:48:59;;;;;;;;;;;;;;;12.44;100.00;100262.13;5013249;28;20357;-72
2023/10/31 11:51:25;;;;;;;;;;;;;;;12.36;100.00;100264.69;5018640;28;20383;-72
2023/10/31 11:53:50;;;;;;;;;;;;;;;12.17;100.00;100259.34;5011303;28;19925;-73
2023/10/31 11:56:15;;;;;;;;;;;;;;;12.22;100.00;100266.00;5011592;28;20475;-72
2023/10/31 11:58:41;;;;;;;;;;;;;;;12.17;100.00;100259.34;5015981;28;19964;-72
2023/10/31 12:01:10;;;;;;;;;;;;;;;12.27;100.00;100262.84;5012647;28;19943;-72
2023/10/31 12:03:42;;;;;;;;;;;;;;;12.18;100.00;100266.44;5013043;28;19939;-72
2023/10/31 12:06:07;;;;;;;;;;;;;;;12.35;100.00;100270.19;5012354;28;19920;-72
2023/10/31 12:08:37;;;;;;;;;;;;;;;12.46;100.00;100272.75;5007918;28;19925;-72
2023/10/31 12:11:03;;;;;;;;;;;;;;;12.67;100.00;100277.94;5016764;28;20434;-72
2023/10/31 12:13:28;;;;;;;;;;;;;;;12.46;100.00;100272.75;5009660;28;20308;-72
2023/10/31 12:15:53;;;;;;;;;;;;;;;12.08;100.00;100278.06;5014176;28;19957;-73
2023/10/31 12:18:18;;;;;;;;;;;;;;;12.11;100.00;100282.28;5008719;28;20867;-72
2023/10/31 12:20:47;;;;;;;;;;;;;;;11.90;100.00;100285.13;5014851;28;19925;-72
2023/10/31 12:23:13;;;;;;;;;;;;;;;12.00;100.00;100284.16;5009846;28;19960;-73
2023/10/31 12:25:45;;;;;;;;;;;;;;;12.11;100.00;100285.84;5013953;28;19984;-72
2023/10/31 12:28:10;;;;;;;;;;;;;;;11.98;100.00;100286.09;5015016;28;19925;-72
2023/10/31 12:30:36;;;;;;;;;;;;;;;11.61;100.00;100285.94;5018801;28;19953;-72
2023/10/31 12:33:01;;;;;;;;;;;;;;;11.50;100.00;100292.31;5014144;28;20036;-72
2023/10/31 12:35:27;;;;;;;;;;;;;;;11.50;100.00;100297.69;5017740;28;19928;-73
2023/10/31 12:37:52;;;;;;;;;;;;;;;11.53;100.00;100292.88;5010824;28;20249;-72